Time;durP1;ratioP1;P1;durP2;ratioP2;P2;SDS_P1;SDS_P2;PMS_P1;PMS_P2;Temp;Humidity;BMP_temperature;BMP_pressure;BME280_temperature;BME280_humidity;BME280_pressure;Samples;Min_cycle;Max_cycle;Signal;HPM_P1;HPM_P2
2023/12/18 00:01:25;;;;;;;0.30;0.30;;;0.30;99.90;;;;;;5104165;28;20172;-71
2023/12/18 00:03:50;;;;;;;0.00;0.00;;;0.30;99.90;;;;;;5093977;28;20183;-71
2023/12/18 00:06:16;;;;;;;0.08;0.08;;;0.30;99.90;;;;;;5105591;28;20715;-71
2023/12/18 00:08:41;;;;;;;0.55;0.55;;;0.30;99.90;;;;;;5100708;28;20219;-71
2023/12/18 00:11:07;;;;;;;0.10;0.10;;;0.30;99.90;;;;;;5109393;28;20262;-71
2023/12/18 00:13:32;;;;;;;0.05;0.05;;;0.30;99.90;;;;;;5109295;28;20171;-72
2023/12/18 00:15:58;;;;;;;0.10;0.10;;;0.30;99.90;;;;;;5108565;28;20503;-70
2023/12/18 00:18:23;;;;;;;0.75;0.52;;;0.30;99.90;;;;;;5091636;28;20172;-70
2023/12/18 00:20:50;;;;;;;0.43;0.43;;;0.30;99.90;;;;;;5110176;28;20266;-69
2023/12/18 00:23:16;;;;;;;0.63;0.63;;;0.30;99.90;;;;;;5109495;28;20577;-70
2023/12/18 00:25:43;;;;;;;0.03;0.03;;;0.30;99.90;;;;;;5096049;28;20184;-70
2023/12/18 00:28:08;;;;;;;0.35;0.35;;;0.30;99.90;;;;;;5104343;28;20218;-70
2023/12/18 00:30:34;;;;;;;0.63;0.63;;;0.30;99.90;;;;;;5104175;28;20581;-70
2023/12/18 00:33:00;;;;;;;0.50;0.50;;;0.20;99.90;;;;;;5092528;28;20171;-70
2023/12/18 00:35:25;;;;;;;0.73;0.73;;;0.20;99.90;;;;;;5094636;28;20189;-70
2023/12/18 00:37:51;;;;;;;0.35;0.35;;;0.20;99.90;;;;;;5103756;28;20219;-70
2023/12/18 00:40:16;;;;;;;0.00;0.00;;;0.20;99.90;;;;;;5101648;28;20498;-70
2023/12/18 00:42:42;;;;;;;0.98;0.47;;;0.10;99.90;;;;;;5095578;28;20581;-70
2023/12/18 00:45:08;;;;;;;0.10;0.10;;;0.10;99.90;;;;;;5107375;28;20262;-71
2023/12/18 00:47:33;;;;;;;0.28;0.28;;;0.10;99.90;;;;;;5095488;28;20186;-70
2023/12/18 00:49:59;;;;;;;0.03;0.03;;;0.20;99.90;;;;;;5109859;28;20175;-71
2023/12/18 00:52:24;;;;;;;0.55;0.55;;;0.10;99.90;;;;;;5099413;28;20180;-70
2023/12/18 00:54:50;;;;;;;1.80;1.15;;;0.20;99.90;;;;;;5104130;28;20178;-70
2023/12/18 00:57:16;;;;;;;0.10;0.10;;;0.20;99.90;;;;;;5105816;28;20546;-70
2023/12/18 00:59:41;;;;;;;0.40;0.40;;;0.30;99.90;;;;;;5104282;28;20536;-71
2023/12/18 01:02:07;;;;;;;1.08;1.08;;;0.30;99.90;;;;;;5090950;28;20625;-71
2023/12/18 01:04:32;;;;;;;0.45;0.45;;;0.30;99.90;;;;;;5094632;28;20180;-70
2023/12/18 01:06:58;;;;;;;0.30;0.30;;;0.30;99.90;;;;;;5106528;28;20523;-70
2023/12/18 01:09:23;;;;;;;0.15;0.15;;;0.30;99.90;;;;;;5108463;28;20173;-70
2023/12/18 01:11:49;;;;;;;0.00;0.00;;;0.30;99.90;;;;;;5106367;28;20176;-69
2023/12/18 01:14:15;;;;;;;0.22;0.20;;;0.30;99.90;;;;;;5103052;28;20180;-70
2023/12/18 01:16:40;;;;;;;0.13;0.13;;;0.30;99.90;;;;;;5092024;28;20183;-70
2023/12/18 01:19:06;;;;;;;0.20;0.20;;;0.30;99.90;;;;;;5091422;28;20180;-71
2023/12/18 01:21:31;;;;;;;0.50;0.50;;;0.30;99.90;;;;;;5102205;28;20655;-70
2023/12/18 01:23:57;;;;;;;0.10;0.10;;;0.40;99.90;;;;;;5107352;28;20215;-70
2023/12/18 01:26:22;;;;;;;0.00;0.00;;;0.30;99.90;;;;;;5097959;28;20255;-71
2023/12/18 01:28:48;;;;;;;0.20;0.20;;;0.30;99.90;;;;;;5113895;28;20187;-70
2023/12/18 01:31:23;;;;;;;0.00;0.00;;;0.30;99.90;;;;;;5102959;28;20232;-70
2023/12/18 01:33:49;;;;;;;0.98;0.05;;;0.30;99.90;;;;;;5110981;28;20248;-70
2023/12/18 01:36:14;;;;;;;0.00;0.00;;;0.30;99.90;;;;;;5111217;27;20203;-70
2023/12/18 01:38:40;;;;;;;0.00;0.00;;;0.30;99.90;;;;;;5109969;28;20274;-70
2023/12/18 01:41:05;;;;;;;0.20;0.20;;;0.30;99.90;;;;;;5110329;28;20647;-71
2023/12/18 01:43:31;;;;;;;0.13;0.13;;;0.30;99.90;;;;;;5094509;28;20208;-70
2023/12/18 01:46:01;;;;;;;0.13;0.13;;;0.30;99.90;;;;;;5098947;28;20678;-70
2023/12/18 01:48:28;;;;;;;0.10;0.10;;;0.20;99.90;;;;;;5106876;28;20650;-71
2023/12/18 01:50:54;;;;;;;0.30;0.30;;;0.10;99.90;;;;;;5100594;28;20246;-70
2023/12/18 01:53:23;;;;;;;0.10;0.10;;;0.10;99.90;;;;;;5111053;28;20654;-72
2023/12/18 01:55:49;;;;;;;0.00;0.00;;;0.10;99.90;;;;;;5098398;28;20175;-71
2023/12/18 01:58:15;;;;;;;1.60;1.52;;;0.10;99.90;;;;;;5113523;28;20381;-70
2023/12/18 02:00:41;;;;;;;0.80;0.80;;;0.00;99.90;;;;;;5102474;27;20275;-71
2023/12/18 02:03:10;;;;;;;0.73;0.73;;;0.00;99.90;;;;;;5108576;28;20219;-70
2023/12/18 02:05:36;;;;;;;0.20;0.20;;;0.00;99.90;;;;;;5096447;28;20249;-70
2023/12/18 02:08:03;;;;;;;0.20;0.20;;;0.00;99.90;;;;;;5097925;28;20222;-70
2023/12/18 02:10:29;;;;;;;0.00;0.00;;;0.00;99.90;;;;;;5113943;28;20240;-71
2023/12/18 02:12:55;;;;;;;0.13;0.13;;;0.00;99.90;;;;;;5107155;28;20188;-70
2023/12/18 02:15:20;;;;;;;0.30;0.30;;;0.00;99.90;;;;;;5093565;28;20173;-71
2023/12/18 02:17:46;;;;;;;0.00;0.00;;;0.10;99.90;;;;;;5093636;28;20212;-70
2023/12/18 02:20:12;;;;;;;0.40;0.40;;;0.10;99.90;;;;;;5093437;28;20181;-71
2023/12/18 02:23:03;;;;;;;0.40;0.40;;;0.10;99.90;;;;;;5093220;28;20222;-71
2023/12/18 02:25:29;;;;;;;0.00;0.00;;;0.10;99.90;;;;;;5089707;28;20201;-70
2023/12/18 02:27:55;;;;;;;0.15;0.10;;;0.10;99.90;;;;;;5103434;28;20184;-70
2023/12/18 02:30:24;;;;;;;0.20;0.20;;;0.10;99.90;;;;;;5112048;28;20171;-70
2023/12/18 02:32:50;;;;;;;0.05;0.05;;;0.10;99.90;;;;;;5103062;28;20201;-68
2023/12/18 02:35:16;;;;;;;0.03;0.03;;;0.10;99.90;;;;;;5096430;28;20191;-69
2023/12/18 02:37:42;;;;;;;0.22;0.22;;;0.10;99.90;;;;;;5095106;28;20223;-70
2023/12/18 02:40:07;;;;;;;0.00;0.00;;;0.10;99.90;;;;;;5095490;28;20624;-70
2023/12/18 02:42:33;;;;;;;0.13;0.13;;;0.10;99.90;;;;;;5097112;28;20272;-71
2023/12/18 02:45:01;;;;;;;0.15;0.15;;;0.10;99.90;;;;;;5113362;28;20186;-70
2023/12/18 02:47:26;;;;;;;0.00;0.00;;;0.10;99.90;;;;;;5113303;28;20187;-70
2023/12/18 02:49:52;;;;;;;0.25;0.25;;;0.10;99.90;;;;;;5114549;28;20179;-70
2023/12/18 02:52:18;;;;;;;0.10;0.10;;;0.10;99.90;;;;;;5105802;28;20210;-71
2023/12/18 02:54:43;;;;;;;0.03;0.03;;;0.10;99.90;;;;;;5097206;28;20586;-72
2023/12/18 02:57:09;;;;;;;0.15;0.15;;;0.10;99.90;;;;;;5110214;28;20589;-71
2023/12/18 02:59:34;;;;;;;0.00;0.00;;;0.10;99.90;;;;;;5112479;28;20190;-71
2023/12/18 03:02:00;;;;;;;0.13;0.13;;;0.10;99.90;;;;;;5103993;28;20558;-70
2023/12/18 03:04:25;;;;;;;0.05;0.05;;;0.10;99.90;;;;;;5091291;28;20215;-71
2023/12/18 03:06:51;;;;;;;0.38;0.38;;;0.00;99.90;;;;;;5103693;28;20211;-71
2023/12/18 03:09:16;;;;;;;0.00;0.00;;;0.00;99.90;;;;;;5112383;28;20235;-71
2023/12/18 03:11:44;;;;;;;0.10;0.10;;;0.10;99.90;;;;;;5111260;28;20267;-71
2023/12/18 03:14:10;;;;;;;0.10;0.10;;;0.00;99.90;;;;;;5100391;28;20184;-70
2023/12/18 03:16:39;;;;;;;0.00;0.00;;;0.00;99.90;;;;;;5092470;28;20192;-70
2023/12/18 03:19:05;;;;;;;0.00;0.00;;;0.00;99.90;;;;;;5092132;28;20549;-70
2023/12/18 03:21:30;;;;;;;0.00;0.00;;;-0.10;99.90;;;;;;5093539;28;20184;-70
2023/12/18 03:23:56;;;;;;;0.00;0.00;;;-0.10;99.90;;;;;;5098798;28;20194;-71
2023/12/18 03:26:22;;;;;;;0.30;0.30;;;-0.10;99.90;;;;;;5109318;28;20639;-71
2023/12/18 03:28:48;;;;;;;0.00;0.00;;;-0.10;99.90;;;;;;5093395;28;20188;-70
2023/12/18 03:31:16;;;;;;;0.00;0.00;;;0.00;99.90;;;;;;5102020;28;20175;-70
2023/12/18 03:33:42;;;;;;;0.70;0.60;;;-0.10;99.90;;;;;;5110856;28;20270;-70
2023/12/18 03:36:08;;;;;;;0.10;0.10;;;-0.10;99.90;;;;;;5102899;28;20263;-70
2023/12/18 03:38:33;;;;;;;0.10;0.10;;;-0.10;99.90;;;;;;5093030;28;20224;-70
2023/12/18 03:40:59;;;;;;;0.00;0.00;;;-0.20;99.90;;;;;;5104633;28;20183;-70
2023/12/18 03:43:25;;;;;;;0.00;0.00;;;-0.20;99.90;;;;;;5110488;28;20222;-70
2023/12/18 03:45:50;;;;;;;0.00;0.00;;;-0.20;99.90;;;;;;5093017;28;20187;-70
2023/12/18 03:48:16;;;;;;;0.10;0.10;;;-0.30;99.90;;;;;;5091877;28;20192;-71
2023/12/18 03:50:44;;;;;;;0.00;0.00;;;-0.30;99.90;;;;;;5094424;28;20184;-70
2023/12/18 03:53:10;;;;;;;0.00;0.00;;;-0.30;99.90;;;;;;5100815;28;20274;-71
2023/12/18 03:55:36;;;;;;;0.00;0.00;;;-0.30;99.90;;;;;;5091799;28;20321;-71
2023/12/18 03:58:02;;;;;;;0.17;0.17;;;-0.30;99.90;;;;;;5108110;28;20180;-71
2023/12/18 04:00:27;;;;;;;0.00;0.00;;;-0.30;99.90;;;;;;5112111;28;20171;-71
2023/12/18 04:02:53;;;;;;;0.20;0.20;;;-0.30;99.90;;;;;;5098557;28;20207;-71
2023/12/18 04:05:19;;;;;;;0.00;0.00;;;-0.30;99.90;;;;;;5095831;28;20282;-70
2023/12/18 04:07:45;;;;;;;0.03;0.03;;;-0.20;99.90;;;;;;5091766;28;20229;-71
2023/12/18 04:10:10;;;;;;;0.22;0.22;;;-0.30;99.90;;;;;;5109153;28;20180;-71
2023/12/18 04:12:36;;;;;;;0.00;0.00;;;-0.30;99.90;;;;;;5111983;28;20700;-71
2023/12/18 04:15:03;;;;;;;0.27;0.20;;;-0.20;99.90;;;;;;5110409;28;20585;-71
2023/12/18 04:17:29;;;;;;;0.00;0.00;;;-0.30;99.90;;;;;;5111931;28;20229;-71
2023/12/18 04:19:54;;;;;;;0.93;0.80;;;-0.30;99.90;;;;;;5109731;28;20175;-71
2023/12/18 04:22:20;;;;;;;0.00;0.00;;;-0.30;99.90;;;;;;5110711;28;20294;-71
2023/12/18 04:24:46;;;;;;;0.30;0.30;;;-0.30;99.90;;;;;;5096056;28;20654;-70
2023/12/18 04:27:11;;;;;;;0.00;0.00;;;-0.30;99.90;;;;;;5096218;28;20203;-71
2023/12/18 04:29:37;;;;;;;0.10;0.10;;;-0.30;99.90;;;;;;5095539;28;20212;-68
2023/12/18 04:32:04;;;;;;;0.40;0.40;;;-0.40;99.90;;;;;;5111497;28;20590;-67
2023/12/18 04:34:30;;;;;;;0.40;0.40;;;-0.40;99.90;;;;;;5099269;28;20654;-68
2023/12/18 04:36:55;;;;;;;0.27;0.27;;;-0.30;99.90;;;;;;5105551;28;20211;-72
2023/12/18 04:39:21;;;;;;;0.00;0.00;;;-0.20;99.90;;;;;;5110853;28;20212;-73
2023/12/18 04:41:46;;;;;;;0.20;0.20;;;-0.20;99.90;;;;;;5111155;28;20203;-73
2023/12/18 04:44:12;;;;;;;0.10;0.10;;;-0.20;99.90;;;;;;5094848;28;20693;-72
2023/12/18 04:46:38;;;;;;;0.10;0.10;;;-0.20;99.90;;;;;;5096633;28;20270;-68
2023/12/18 04:49:05;;;;;;;0.40;0.40;;;-0.30;99.90;;;;;;5110223;28;20183;-73
2023/12/18 04:51:30;;;;;;;0.00;0.00;;;-0.30;99.90;;;;;;5112583;28;20203;-75
2023/12/18 04:53:56;;;;;;;0.00;0.00;;;-0.30;99.90;;;;;;5093595;28;20245;-73
2023/12/18 04:56:22;;;;;;;0.17;0.17;;;-0.40;99.90;;;;;;5097965;28;20227;-70
2023/12/18 04:58:47;;;;;;;0.00;0.00;;;-0.40;99.90;;;;;;5113298;28;20312;-73
2023/12/18 05:01:13;;;;;;;0.00;0.00;;;-0.40;99.90;;;;;;5108431;28;20184;-75
2023/12/18 05:03:38;;;;;;;0.10;0.10;;;-0.40;99.90;;;;;;5105417;28;20257;-71
2023/12/18 05:06:04;;;;;;;0.47;0.47;;;-0.40;99.90;;;;;;5103809;28;20184;-73
2023/12/18 05:08:30;;;;;;;0.17;0.17;;;-0.40;99.90;;;;;;5099018;28;20184;-71
2023/12/18 05:10:55;;;;;;;0.00;0.00;;;-0.40;99.90;;;;;;5092739;28;20188;-71
2023/12/18 05:13:21;;;;;;;0.00;0.00;;;-0.40;99.90;;;;;;5106635;28;20536;-71
2023/12/18 05:15:47;;;;;;;0.00;0.00;;;-0.50;99.90;;;;;;5097411;28;20271;-72
2023/12/18 05:18:13;;;;;;;0.63;0.63;;;-0.50;99.90;;;;;;5111037;28;20183;-71
2023/12/18 05:20:38;;;;;;;0.05;0.05;;;-0.50;99.90;;;;;;5095962;28;20176;-72
2023/12/18 05:23:04;;;;;;;0.10;0.10;;;-0.50;99.90;;;;;;5094868;28;20211;-72
2023/12/18 05:25:29;;;;;;;0.00;0.00;;;-0.40;99.90;;;;;;5095129;28;20528;-72
2023/12/18 05:27:55;;;;;;;0.00;0.00;;;-0.40;99.90;;;;;;5095112;28;20176;-71
2023/12/18 05:30:21;;;;;;;0.07;0.07;;;-0.40;99.90;;;;;;5095103;28;20172;-71
2023/12/18 05:32:46;;;;;;;0.00;0.00;;;-0.40;99.90;;;;;;5094860;28;20210;-71
2023/12/18 05:35:12;;;;;;;0.00;0.00;;;-0.40;99.90;;;;;;5094948;28;20184;-71
2023/12/18 05:37:37;;;;;;;0.20;0.20;;;-0.40;99.90;;;;;;5094773;28;20240;-71
2023/12/18 05:40:03;;;;;;;0.20;0.20;;;-0.40;99.90;;;;;;5094899;28;20172;-71
2023/12/18 05:42:29;;;;;;;0.43;0.43;;;-0.40;99.90;;;;;;5094695;28;20257;-72
2023/12/18 05:44:54;;;;;;;0.00;0.00;;;-0.40;99.90;;;;;;5094757;28;20636;-72
2023/12/18 05:47:20;;;;;;;0.20;0.20;;;-0.50;99.90;;;;;;5094728;28;20172;-71
2023/12/18 05:49:45;;;;;;;0.10;0.10;;;-0.60;99.90;;;;;;5094568;28;20191;-71
2023/12/18 05:52:11;;;;;;;0.10;0.10;;;-0.60;99.90;;;;;;5093381;28;20259;-71
2023/12/18 05:54:37;;;;;;;0.00;0.00;;;-0.60;99.90;;;;;;5094440;28;20271;-71
2023/12/18 05:57:03;;;;;;;0.40;0.40;;;-0.60;99.90;;;;;;5094440;28;20180;-71
2023/12/18 05:59:28;;;;;;;0.00;0.00;;;-0.60;99.90;;;;;;5094353;28;20183;-72
2023/12/18 06:01:55;;;;;;;0.00;0.00;;;-0.70;99.90;;;;;;5094312;28;20279;-70
2023/12/18 06:04:21;;;;;;;0.38;0.38;;;-0.70;99.90;;;;;;5094402;28;20226;-71
2023/12/18 06:06:46;;;;;;;0.00;0.00;;;-0.70;99.90;;;;;;5092453;28;20184;-71
2023/12/18 06:09:12;;;;;;;0.00;0.00;;;-0.70;99.90;;;;;;5092934;28;20229;-72
2023/12/18 06:11:37;;;;;;;0.13;0.13;;;-0.70;99.90;;;;;;5094338;28;20251;-71
2023/12/18 06:14:03;;;;;;;0.00;0.00;;;-0.70;99.90;;;;;;5094497;28;20628;-71
2023/12/18 06:16:29;;;;;;;0.00;0.00;;;-0.70;99.90;;;;;;5094232;28;20259;-71
2023/12/18 06:18:54;;;;;;;0.00;0.00;;;-0.60;99.90;;;;;;5094124;28;20171;-71
2023/12/18 06:21:20;;;;;;;0.17;0.17;;;-0.70;99.90;;;;;;5094177;28;20176;-72
2023/12/18 06:23:45;;;;;;;0.00;0.00;;;-0.70;99.90;;;;;;5093886;28;20257;-70
2023/12/18 06:26:11;;;;;;;0.30;0.23;;;-0.60;99.90;;;;;;5093971;28;20211;-71
2023/12/18 06:28:36;;;;;;;0.00;0.00;;;-0.60;99.90;;;;;;5094047;28;20199;-71
2023/12/18 06:31:02;;;;;;;0.05;0.05;;;-0.60;99.90;;;;;;5093920;28;20644;-70
2023/12/18 06:33:27;;;;;;;0.20;0.20;;;-0.60;99.90;;;;;;5093935;28;20267;-70
2023/12/18 06:35:53;;;;;;;0.00;0.00;;;-0.60;99.90;;;;;;5093588;28;20183;-71
2023/12/18 06:38:19;;;;;;;0.10;0.10;;;-0.60;99.90;;;;;;5093689;28;20232;-71
2023/12/18 06:40:44;;;;;;;0.10;0.10;;;-0.60;99.90;;;;;;5093896;28;20172;-71
2023/12/18 06:43:10;;;;;;;0.00;0.00;;;-0.50;99.90;;;;;;5093624;28;20222;-71
2023/12/18 06:45:35;;;;;;;0.10;0.10;;;-0.50;99.90;;;;;;5093764;28;20602;-71
2023/12/18 06:48:02;;;;;;;0.13;0.13;;;-0.50;99.90;;;;;;5093575;28;20231;-71
2023/12/18 06:50:28;;;;;;;0.08;0.08;;;-0.50;99.90;;;;;;5093490;28;20184;-71
2023/12/18 06:52:54;;;;;;;0.10;0.10;;;-0.50;99.90;;;;;;5093501;28;20575;-72
2023/12/18 06:55:19;;;;;;;0.32;0.32;;;-0.40;99.90;;;;;;5093381;28;20263;-70
2023/12/18 06:57:45;;;;;;;0.00;0.00;;;-0.40;99.90;;;;;;5093458;28;20179;-71
2023/12/18 07:00:11;;;;;;;0.00;0.00;;;-0.40;99.90;;;;;;5093361;28;20176;-70
2023/12/18 07:02:36;;;;;;;0.00;0.00;;;-0.30;99.90;;;;;;5093283;28;20223;-71
2023/12/18 07:05:02;;;;;;;0.00;0.00;;;-0.30;99.90;;;;;;5093230;28;20183;-72
2023/12/18 07:07:28;;;;;;;0.00;0.00;;;-0.30;99.90;;;;;;5093201;28;20245;-70
2023/12/18 07:09:54;;;;;;;0.00;0.00;;;-0.20;99.90;;;;;;5093225;28;20172;-72
2023/12/18 07:12:19;;;;;;;0.10;0.10;;;-0.20;99.90;;;;;;5091954;28;20172;-71
2023/12/18 07:14:45;;;;;;;0.23;0.20;;;-0.20;99.90;;;;;;5093174;28;20246;-71
2023/12/18 07:17:10;;;;;;;0.17;0.17;;;-0.20;99.90;;;;;;5092147;28;20211;-71
2023/12/18 07:19:39;;;;;;;0.00;0.00;;;-0.20;99.90;;;;;;5093078;28;20176;-72
2023/12/18 07:22:05;;;;;;;0.00;0.00;;;-0.20;99.90;;;;;;5092861;28;20212;-71
2023/12/18 07:24:31;;;;;;;0.10;0.10;;;-0.10;99.90;;;;;;5091594;28;20228;-71
2023/12/18 07:26:56;;;;;;;0.00;0.00;;;-0.20;99.90;;;;;;5092983;28;20172;-72
2023/12/18 07:29:22;;;;;;;0.00;0.00;;;-0.10;99.90;;;;;;5092951;28;20176;-71
2023/12/18 07:31:47;;;;;;;0.10;0.10;;;-0.10;99.90;;;;;;5092702;28;20176;-71
2023/12/18 07:34:13;;;;;;;0.10;0.10;;;-0.10;99.90;;;;;;5092544;28;20313;-71
2023/12/18 07:36:40;;;;;;;0.00;0.00;;;-0.10;99.90;;;;;;5092376;28;20218;-72
2023/12/18 07:39:13;;;;;;;0.17;0.17;;;-0.10;99.90;;;;;;5068722;28;20964;-71
2023/12/18 07:41:39;;;;;;;0.00;0.00;;;-0.10;99.90;;;;;;5068806;28;20177;-71
2023/12/18 07:44:04;;;;;;;0.10;0.10;;;-0.10;99.90;;;;;;5068605;28;20777;-70
2023/12/18 07:46:30;;;;;;;0.00;0.00;;;-0.10;99.90;;;;;;5068594;28;20230;-71
2023/12/18 07:48:55;;;;;;;0.03;0.03;;;0.00;99.90;;;;;;5068497;28;20180;-70
2023/12/18 07:51:21;;;;;;;0.00;0.00;;;0.00;99.90;;;;;;5068304;28;20177;-71
2023/12/18 07:53:46;;;;;;;0.07;0.07;;;0.00;99.90;;;;;;5068328;28;20260;-70
2023/12/18 07:56:12;;;;;;;0.00;0.00;;;0.00;99.90;;;;;;5068308;28;20173;-72
2023/12/18 07:58:40;;;;;;;0.13;0.13;;;0.00;99.90;;;;;;5068338;28;20227;-71
2023/12/18 08:01:05;;;;;;;0.33;0.33;;;0.00;99.90;;;;;;5067996;28;20545;-71
2023/12/18 08:03:31;;;;;;;0.30;0.30;;;0.00;99.90;;;;;;5068246;28;20188;-71
2023/12/18 08:05:56;;;;;;;0.10;0.10;;;0.00;99.90;;;;;;5068102;28;20180;-70
2023/12/18 08:08:22;;;;;;;0.25;0.25;;;0.00;99.90;;;;;;5068192;28;20173;-71
2023/12/18 08:10:48;;;;;;;0.60;0.60;;;0.10;99.90;;;;;;5068087;28;20180;-70
2023/12/18 08:13:13;;;;;;;1.30;1.13;;;0.10;99.90;;;;;;5068111;28;20718;-70
2023/12/18 08:15:39;;;;;;;0.47;0.47;;;0.20;99.90;;;;;;5068115;28;20259;-71
2023/12/18 08:18:05;;;;;;;0.00;0.00;;;0.20;99.90;;;;;;5068021;28;20501;-71
2023/12/18 08:20:30;;;;;;;0.10;0.10;;;0.20;99.90;;;;;;5068052;28;20260;-72
2023/12/18 08:22:56;;;;;;;0.00;0.00;;;0.20;99.90;;;;;;5067947;28;20599;-70
2023/12/18 08:25:21;;;;;;;0.10;0.10;;;0.20;99.90;;;;;;5067869;28;20176;-70
2023/12/18 08:27:47;;;;;;;0.00;0.00;;;0.30;99.90;;;;;;5067643;28;20246;-70
2023/12/18 08:30:13;;;;;;;0.45;0.45;;;0.30;99.90;;;;;;5067752;28;20260;-71
2023/12/18 08:32:39;;;;;;;0.10;0.10;;;0.40;99.90;;;;;;5067665;28;20177;-71
2023/12/18 08:35:08;;;;;;;0.00;0.00;;;0.60;99.90;;;;;;5067495;28;20181;-71
2023/12/18 08:37:34;;;;;;;0.00;0.00;;;0.70;99.90;;;;;;5067271;28;20217;-71
2023/12/18 08:39:59;;;;;;;2.00;1.88;;;0.80;99.90;;;;;;5067422;28;20184;-71
2023/12/18 08:42:25;;;;;;;0.45;0.45;;;0.80;99.90;;;;;;5067832;28;20180;-71
2023/12/18 08:44:50;;;;;;;0.10;0.10;;;0.90;99.90;;;;;;5068181;28;20180;-70
2023/12/18 08:47:16;;;;;;;0.10;0.10;;;1.00;99.90;;;;;;5066413;28;20180;-71
2023/12/18 08:49:41;;;;;;;0.40;0.40;;;1.00;99.90;;;;;;5059275;28;20165;-71
2023/12/18 08:52:08;;;;;;;0.05;0.05;;;1.00;99.90;;;;;;5053982;28;20174;-71
2023/12/18 08:54:33;;;;;;;0.00;0.00;;;1.00;99.90;;;;;;5054784;28;20615;-71
2023/12/18 08:56:59;;;;;;;0.00;0.00;;;1.10;99.90;;;;;;5055815;28;20209;-71
2023/12/18 08:59:24;;;;;;;0.00;0.00;;;1.10;99.90;;;;;;5056458;28;20181;-72
2023/12/18 09:01:50;;;;;;;0.10;0.10;;;1.10;99.90;;;;;;5053108;28;20535;-71
2023/12/18 09:04:16;;;;;;;0.52;0.52;;;1.30;99.90;;;;;;5053932;28;20180;-71
2023/12/18 09:06:41;;;;;;;0.22;0.22;;;1.40;99.90;;;;;;5053933;28;20170;-71
2023/12/18 09:09:07;;;;;;;0.10;0.10;;;1.50;99.90;;;;;;5053708;28;20185;-71
2023/12/18 09:11:33;;;;;;;0.32;0.32;;;1.60;99.90;;;;;;5053752;28;20165;-71
2023/12/18 09:14:00;;;;;;;0.20;0.20;;;1.70;99.90;;;;;;5052243;28;20633;-71
2023/12/18 09:16:26;;;;;;;0.10;0.10;;;1.80;99.90;;;;;;5053583;28;20190;-71
2023/12/18 09:18:51;;;;;;;1.77;0.80;;;1.90;99.90;;;;;;5053604;28;20542;-71
2023/12/18 09:21:17;;;;;;;0.47;0.47;;;2.00;99.90;;;;;;5053631;28;20200;-71
2023/12/18 09:23:44;;;;;;;0.20;0.20;;;2.00;99.90;;;;;;5053476;28;20270;-71
2023/12/18 09:26:11;;;;;;;0.00;0.00;;;2.00;99.90;;;;;;5053352;28;20173;-71
2023/12/18 09:28:37;;;;;;;0.10;0.10;;;2.00;99.90;;;;;;5053418;28;20208;-71
2023/12/18 09:31:02;;;;;;;0.00;0.00;;;2.10;99.90;;;;;;5053550;28;20209;-71
2023/12/18 09:33:28;;;;;;;0.10;0.10;;;2.20;99.90;;;;;;5053348;28;20181;-72
2023/12/18 09:35:53;;;;;;;0.00;0.00;;;2.30;99.90;;;;;;5053324;28;20170;-71
2023/12/18 09:38:19;;;;;;;0.30;0.30;;;2.30;99.90;;;;;;5053091;28;20322;-72
2023/12/18 09:40:45;;;;;;;0.00;0.00;;;2.30;99.90;;;;;;5053214;28;20234;-71
2023/12/18 09:43:17;;;;;;;0.17;0.17;;;2.40;99.90;;;;;;5053100;28;20260;-72
2023/12/18 09:45:47;;;;;;;0.00;0.00;;;2.50;99.90;;;;;;5053295;28;20181;-72
2023/12/18 09:48:13;;;;;;;0.10;0.10;;;2.60;99.90;;;;;;5053117;28;20312;-72
2023/12/18 09:50:38;;;;;;;0.20;0.20;;;2.70;99.90;;;;;;5053273;28;20270;-73
2023/12/18 09:53:13;;;;;;;0.57;0.57;;;2.80;99.90;;;;;;5052980;28;20673;-73
2023/12/18 09:55:40;;;;;;;0.00;0.00;;;2.80;99.90;;;;;;5053090;28;20181;-73
2023/12/18 09:58:06;;;;;;;0.00;0.00;;;2.90;99.90;;;;;;5052678;28;20213;-73
2023/12/18 10:00:32;;;;;;;0.10;0.10;;;2.90;99.90;;;;;;5052151;28;20201;-73
2023/12/18 10:02:59;;;;;;;0.10;0.10;;;2.80;99.90;;;;;;5052580;28;20166;-72
2023/12/18 10:05:25;;;;;;;0.30;0.30;;;2.70;99.90;;;;;;5052705;28;20632;-73
2023/12/18 10:07:52;;;;;;;0.10;0.10;;;2.60;99.90;;;;;;5052636;28;20545;-72
2023/12/18 10:10:18;;;;;;;0.00;0.00;;;2.60;99.90;;;;;;5052801;28;20315;-73
2023/12/18 10:12:45;;;;;;;0.00;0.00;;;2.70;99.90;;;;;;5052666;28;20260;-73
2023/12/18 10:15:11;;;;;;;0.00;0.00;;;2.70;99.90;;;;;;5052632;28;20185;-72
2023/12/18 10:17:44;;;;;;;0.52;0.45;;;2.70;99.90;;;;;;5052580;28;20549;-72
2023/12/18 10:20:11;;;;;;;0.00;0.00;;;2.70;99.90;;;;;;5052501;28;20177;-72
2023/12/18 10:22:38;;;;;;;0.05;0.05;;;2.70;99.90;;;;;;5052425;28;20673;-72
2023/12/18 10:25:04;;;;;;;0.00;0.00;;;2.70;99.90;;;;;;5052459;28;20165;-72
2023/12/18 10:27:34;;;;;;;0.00;0.00;;;2.70;99.90;;;;;;5052433;28;20248;-72
2023/12/18 10:30:00;;;;;;;0.00;0.00;;;2.70;99.90;;;;;;5052174;28;20174;-73
2023/12/18 10:32:27;;;;;;;0.00;0.00;;;2.80;99.90;;;;;;5052226;28;20186;-73
2023/12/18 10:34:53;;;;;;;0.05;0.05;;;2.70;99.90;;;;;;5052250;28;20205;-70
2023/12/18 10:37:22;;;;;;;0.00;0.00;;;2.70;99.90;;;;;;5051849;28;20259;-73
2023/12/18 10:39:50;;;;;;;0.10;0.10;;;2.70;99.90;;;;;;5052087;28;20177;-73
2023/12/18 10:42:35;;;;;;;0.20;0.20;;;2.60;99.90;;;;;;5052183;28;20170;-72
2023/12/18 10:45:06;;;;;;;0.47;0.47;;;2.60;99.90;;;;;;5052075;28;20601;-72
2023/12/18 10:47:32;;;;;;;0.00;0.00;;;2.60;99.90;;;;;;5052276;28;20192;-72
2023/12/18 10:50:04;;;;;;;0.00;0.00;;;2.70;99.90;;;;;;5051807;28;20173;-71
2023/12/18 10:52:30;;;;;;;0.25;0.25;;;2.80;99.90;;;;;;5052024;28;20165;-71
2023/12/18 10:55:00;;;;;;;0.00;0.00;;;2.90;99.90;;;;;;5050645;28;20170;-71
2023/12/18 10:57:26;;;;;;;0.10;0.10;;;3.00;99.90;;;;;;5051662;28;20311;-72
2023/12/18 10:59:52;;;;;;;0.00;0.00;;;3.20;99.90;;;;;;5051726;28;20671;-72
2023/12/18 11:02:18;;;;;;;0.00;0.00;;;3.40;99.90;;;;;;5051769;28;20181;-72
2023/12/18 11:04:48;;;;;;;0.00;0.00;;;3.50;99.90;;;;;;5051768;28;20186;-72
2023/12/18 11:07:17;;;;;;;0.17;0.17;;;3.60;99.90;;;;;;5051677;28;20208;-72
2023/12/18 11:09:47;;;;;;;0.00;0.00;;;3.80;99.90;;;;;;5051755;28;20185;-72
2023/12/18 11:12:14;;;;;;;0.00;0.00;;;3.90;99.90;;;;;;5051195;28;20177;-72
2023/12/18 11:15:25;;;;;;;0.00;0.00;;;4.00;99.90;;;;;;5051568;28;20184;-72
2023/12/18 11:18:10;;;;;;;0.00;0.00;;;4.20;99.90;;;;;;5045888;28;20221;-72
2023/12/18 11:20:40;;;;;;;0.00;0.00;;;4.30;99.90;;;;;;5051687;28;20181;-70
2023/12/18 11:23:05;;;;;;;0.10;0.10;;;4.50;99.90;;;;;;5051374;28;20180;-72
2023/12/18 11:25:34;;;;;;;0.00;0.00;;;4.60;99.90;;;;;;5051461;28;20173;-72
2023/12/18 11:28:02;;;;;;;0.00;0.00;;;4.80;99.90;;;;;;5051388;28;20303;-72
2023/12/18 11:30:29;;;;;;;0.10;0.10;;;4.90;99.90;;;;;;5051323;28;20533;-71
2023/12/18 11:32:56;;;;;;;0.00;0.00;;;5.10;99.90;;;;;;5051206;28;20183;-70
2023/12/18 11:35:28;;;;;;;0.10;0.10;;;5.10;99.90;;;;;;5050082;28;20224;-70
2023/12/18 11:38:14;;;;;;;0.00;0.00;;;5.20;99.90;;;;;;5051051;28;20229;-70
2023/12/18 11:40:43;;;;;;;0.20;0.20;;;5.20;99.90;;;;;;5051290;28;20173;-70
2023/12/18 11:43:10;;;;;;;1.25;0.60;;;5.20;99.90;;;;;;5050981;28;20266;-69
2023/12/18 11:45:42;;;;;;;0.15;0.15;;;5.30;99.90;;;;;;5051205;28;20177;-69
2023/12/18 11:48:08;;;;;;;0.17;0.17;;;5.30;99.90;;;;;;5051056;28;20178;-70
2023/12/18 11:50:38;;;;;;;1.42;0.93;;;5.40;99.90;;;;;;5051261;28;20671;-70
2023/12/18 11:53:07;;;;;;;0.00;0.00;;;5.40;99.90;;;;;;5051022;28;20184;-70
2023/12/18 11:55:40;;;;;;;0.20;0.20;;;5.40;99.90;;;;;;5051148;28;20174;-70
2023/12/18 11:58:07;;;;;;;0.20;0.20;;;5.40;99.90;;;;;;5050853;28;20678;-70
2023/12/18 12:00:39;;;;;;;0.10;0.10;;;5.50;99.90;;;;;;5051093;28;20300;-70
2023/12/18 12:03:05;;;;;;;0.40;0.40;;;5.60;99.90;;;;;;5051052;28;20169;-70
2023/12/18 12:05:35;;;;;;;0.30;0.30;;;5.60;99.90;;;;;;5051150;28;20177;-71
2023/12/18 12:08:01;;;;;;;0.00;0.00;;;5.80;99.90;;;;;;5051036;28;20256;-71
2023/12/18 12:10:26;;;;;;;0.00;0.00;;;5.90;99.90;;;;;;5050899;28;20261;-72
2023/12/18 12:12:56;;;;;;;0.57;0.57;;;6.10;99.90;;;;;;5051016;28;20669;-72
2023/12/18 12:15:24;;;;;;;0.08;0.08;;;6.20;99.90;;;;;;5051036;28;20182;-71
2023/12/18 12:18:09;;;;;;;0.00;0.00;;;6.30;99.90;;;;;;5050665;28;20251;-72
2023/12/18 12:20:35;;;;;;;0.05;0.05;;;6.30;99.90;;;;;;5050374;28;20247;-72
2023/12/18 12:23:00;;;;;;;0.00;0.00;;;6.30;99.90;;;;;;5050779;28;20185;-72
2023/12/18 12:25:26;;;;;;;0.00;0.00;;;6.40;99.90;;;;;;5053502;28;20173;-72
2023/12/18 12:27:52;;;;;;;0.10;0.10;;;6.50;99.90;;;;;;5053439;28;20192;-72
2023/12/18 12:30:17;;;;;;;0.10;0.10;;;6.50;99.90;;;;;;5054566;28;20181;-72
2023/12/18 12:32:45;;;;;;;0.10;0.10;;;6.60;99.90;;;;;;5054485;28;20264;-73
2023/12/18 12:35:11;;;;;;;0.00;0.00;;;6.60;99.90;;;;;;5054377;28;20520;-73
2023/12/18 12:37:37;;;;;;;0.08;0.08;;;6.70;99.90;;;;;;5054163;28;20222;-72
2023/12/18 12:40:07;;;;;;;0.00;0.00;;;6.80;99.90;;;;;;5053103;28;20181;-72
2023/12/18 12:42:36;;;;;;;0.10;0.10;;;6.80;99.90;;;;;;5054324;28;20188;-72
2023/12/18 12:45:02;;;;;;;0.00;0.00;;;6.90;99.90;;;;;;5054155;28;20178;-72
2023/12/18 12:47:28;;;;;;;0.00;0.00;;;7.00;99.90;;;;;;5053896;28;20261;-72
2023/12/18 12:49:55;;;;;;;0.00;0.00;;;7.00;99.90;;;;;;5054107;28;20188;-72